createdAt,value
2022-10-17T00:00:58.699Z,14.7
2022-10-17T00:02:15.804Z,14.7
2022-10-17T00:03:32.908Z,14.7
2022-10-17T00:04:50.012Z,14.7
2022-10-17T00:06:07.117Z,14.7
2022-10-17T00:07:24.221Z,14.7
2022-10-17T00:08:41.325Z,14.7
2022-10-17T00:09:57.446Z,14.8
2022-10-17T00:11:14.550Z,14.9
2022-10-17T00:12:31.654Z,14.9
2022-10-17T00:13:48.759Z,14.9
2022-10-17T00:15:05.864Z,14.9
2022-10-17T00:16:22.968Z,15
2022-10-17T00:17:40.072Z,14.9
2022-10-17T00:18:57.177Z,14.9
2022-10-17T00:20:14.281Z,14.8
2022-10-17T00:21:31.386Z,14.8
2022-10-17T00:22:48.490Z,14.8
2022-10-17T00:24:05.595Z,14.9
2022-10-17T00:25:22.699Z,14.9
2022-10-17T00:26:38.820Z,14.9
2022-10-17T00:27:55.924Z,14.8
2022-10-17T00:29:13.029Z,14.8
2022-10-17T00:30:30.133Z,14.9
2022-10-17T00:31:47.238Z,14.8
2022-10-17T00:33:04.342Z,14.9
2022-10-17T00:34:21.446Z,14.9
2022-10-17T00:35:38.551Z,14.9
2022-10-17T00:36:55.655Z,14.8
2022-10-17T00:38:12.759Z,14.8
2022-10-17T00:39:29.864Z,14.8
2022-10-17T00:40:46.968Z,14.8
2022-10-17T00:42:04.072Z,14.8
2022-10-17T00:43:20.193Z,14.8
2022-10-17T00:44:37.297Z,14.8
2022-10-17T00:45:54.401Z,14.8
2022-10-17T00:47:11.506Z,14.7
2022-10-17T00:48:28.610Z,14.7
2022-10-17T00:49:45.714Z,14.7
2022-10-17T00:51:02.819Z,14.7
2022-10-17T00:52:19.921Z,14.6
2022-10-17T00:53:37.026Z,14.7
2022-10-17T00:54:54.130Z,14.7
2022-10-17T00:56:11.234Z,14.7
2022-10-17T00:57:28.339Z,14.7
2022-10-17T00:58:45.443Z,14.8
2022-10-17T01:00:01.564Z,14.8
2022-10-17T01:01:18.668Z,14.9
2022-10-17T01:02:35.773Z,14.9
2022-10-17T01:03:52.877Z,15
2022-10-17T01:05:09.981Z,15
2022-10-17T01:06:27.086Z,15
2022-10-17T01:07:44.190Z,15
2022-10-17T01:09:01.296Z,15.1
2022-10-17T01:10:18.400Z,15.1
2022-10-17T01:11:35.505Z,15.1
2022-10-17T01:12:52.609Z,15.1
2022-10-17T01:14:09.713Z,15.2
2022-10-17T01:15:26.818Z,15.2
2022-10-17T01:16:42.939Z,15.2
2022-10-17T01:18:00.043Z,15.2
2022-10-17T01:19:17.147Z,15.2
2022-10-17T01:20:34.252Z,15.1
2022-10-17T01:21:51.355Z,15.1
2022-10-17T01:23:08.459Z,15.1
2022-10-17T01:24:25.563Z,15.1
2022-10-17T01:25:42.667Z,15.1
2022-10-17T01:26:59.772Z,15.2
2022-10-17T01:28:16.876Z,15.2
2022-10-17T01:29:33.981Z,15.2
2022-10-17T01:30:51.085Z,15.2
2022-10-17T01:32:08.188Z,15.3
2022-10-17T01:33:24.308Z,15.3
2022-10-17T01:34:41.413Z,15.3
2022-10-17T01:35:58.517Z,15.3
2022-10-17T01:37:15.622Z,15.4
2022-10-17T01:38:32.726Z,15.4
2022-10-17T01:39:49.832Z,15.5
2022-10-17T01:41:05.952Z,15.5
2022-10-17T01:42:23.057Z,15.5
2022-10-17T01:43:40.162Z,15.5
2022-10-17T01:44:57.266Z,15.5
2022-10-17T01:46:14.371Z,15.5
2022-10-17T01:47:31.476Z,15.6
2022-10-17T01:48:48.580Z,15.6
2022-10-17T01:50:05.685Z,15.5
2022-10-17T01:51:22.789Z,15.5
2022-10-17T01:52:39.894Z,15.4
2022-10-17T01:53:56.999Z,15.3
2022-10-17T01:55:14.103Z,15.3
2022-10-17T01:56:31.207Z,15.3
2022-10-17T01:57:47.328Z,15.2
2022-10-17T01:59:04.432Z,15.2
2022-10-17T02:00:21.537Z,15.2
2022-10-17T02:01:38.641Z,15.2
2022-10-17T02:02:55.745Z,15.2
2022-10-17T02:04:12.850Z,15.1
2022-10-17T02:05:29.954Z,15.1
2022-10-17T02:06:47.059Z,15.1
2022-10-17T02:08:04.163Z,15.1
2022-10-17T02:09:21.268Z,15.1
2022-10-17T02:10:38.372Z,14.9
2022-10-17T02:11:55.476Z,14.9
2022-10-17T02:13:12.581Z,14.9
2022-10-17T02:14:28.701Z,14.9
2022-10-17T02:15:45.806Z,14.9
2022-10-17T02:17:02.910Z,14.8
2022-10-17T02:18:20.015Z,14.8
2022-10-17T02:19:37.119Z,14.7
2022-10-17T02:20:54.224Z,14.7
2022-10-17T02:22:11.328Z,14.7
2022-10-17T02:23:28.433Z,14.7
2022-10-17T02:24:45.537Z,14.7
2022-10-17T02:26:02.641Z,14.7
2022-10-17T02:27:19.746Z,14.7
2022-10-17T02:28:36.850Z,14.7
2022-10-17T02:29:53.954Z,14.7
2022-10-17T02:31:10.075Z,14.6
2022-10-17T02:32:27.179Z,14.6
2022-10-17T02:33:44.283Z,14.6
2022-10-17T02:35:01.388Z,14.7
2022-10-17T02:36:18.492Z,14.6
2022-10-17T02:37:35.596Z,14.6
2022-10-17T02:38:52.701Z,14.7
2022-10-17T02:40:09.805Z,14.7
2022-10-17T02:41:26.909Z,14.7
2022-10-17T02:42:44.013Z,14.7
2022-10-17T02:44:01.118Z,14.7
2022-10-17T02:45:18.222Z,14.6
2022-10-17T02:46:35.327Z,14.6
2022-10-17T02:47:51.447Z,14.6
2022-10-17T02:49:08.552Z,14.5
2022-10-17T02:50:25.656Z,14.5
2022-10-17T02:51:42.760Z,14.5
2022-10-17T02:52:59.865Z,14.5
2022-10-17T02:54:16.969Z,14.5
2022-10-17T02:55:34.073Z,14.5
2022-10-17T02:56:51.178Z,14.4
2022-10-17T02:58:08.282Z,14.4
2022-10-17T02:59:25.386Z,14.4
2022-10-17T03:00:42.491Z,14.5
2022-10-17T03:01:59.596Z,14.6
2022-10-17T03:03:16.700Z,14.7
2022-10-17T03:04:32.820Z,14.8
2022-10-17T03:05:49.924Z,14.9
2022-10-17T03:07:07.029Z,14.9
2022-10-17T03:08:24.133Z,14.8
2022-10-17T03:09:41.238Z,14.8
2022-10-17T03:10:58.342Z,14.7
2022-10-17T03:12:15.447Z,14.7
2022-10-17T03:13:32.552Z,14.6
2022-10-17T03:14:49.656Z,14.6
2022-10-17T03:16:06.760Z,14.5
2022-10-17T03:17:23.864Z,14.5
2022-10-17T03:18:40.969Z,14.4
2022-10-17T03:19:58.073Z,14.5
2022-10-17T03:21:14.193Z,14.4
2022-10-17T03:22:31.298Z,14.4
2022-10-17T03:23:48.402Z,14.4
2022-10-17T03:25:05.507Z,14.4
2022-10-17T03:26:22.611Z,14.4
2022-10-17T03:27:39.715Z,14.4
2022-10-17T03:28:56.820Z,14.4
2022-10-17T03:30:13.924Z,14.4
2022-10-17T03:31:31.028Z,14.4
2022-10-17T03:32:48.132Z,14.4
2022-10-17T03:34:05.237Z,14.4
2022-10-17T03:35:22.341Z,14.4
2022-10-17T03:36:39.445Z,14.4
2022-10-17T03:37:55.566Z,14.5
2022-10-17T03:39:12.670Z,14.5
2022-10-17T03:40:29.775Z,14.5
2022-10-17T03:41:46.879Z,14.5
2022-10-17T03:43:03.984Z,14.4
2022-10-17T03:44:21.088Z,14.4
2022-10-17T03:45:38.193Z,14.5
2022-10-17T03:46:55.297Z,14.4
2022-10-17T03:48:12.401Z,14.5
2022-10-17T03:49:29.505Z,14.4
2022-10-17T03:50:46.610Z,14.4
2022-10-17T03:52:03.714Z,14.4
2022-10-17T03:53:20.819Z,14.5
2022-10-17T03:54:36.939Z,14.4
2022-10-17T03:55:54.043Z,14.4
2022-10-17T03:57:11.148Z,14.4
2022-10-17T03:58:28.252Z,14.4
2022-10-17T03:59:45.357Z,14.4
2022-10-17T04:01:02.461Z,14.4
2022-10-17T04:02:19.566Z,14.4
2022-10-17T04:03:36.670Z,14.4
2022-10-17T04:04:53.774Z,14.4
2022-10-17T04:06:10.879Z,14.3
2022-10-17T04:07:27.983Z,14.4
2022-10-17T04:08:45.088Z,14.4
2022-10-17T04:10:02.192Z,14.4
2022-10-17T04:11:18.312Z,14.4
2022-10-17T04:12:35.417Z,14.4
2022-10-17T04:13:52.521Z,14.4
2022-10-17T04:15:09.625Z,14.4
2022-10-17T04:16:26.729Z,14.4
2022-10-17T04:17:43.833Z,14.4
2022-10-17T04:19:00.938Z,14.4
2022-10-17T04:20:18.042Z,14.4
2022-10-17T04:21:35.146Z,14.4
2022-10-17T04:22:52.250Z,14.4
2022-10-17T04:24:09.356Z,14.4
2022-10-17T04:25:26.460Z,14.4
2022-10-17T04:26:43.564Z,14.4
2022-10-17T04:27:59.685Z,14.4
2022-10-17T04:29:16.789Z,14.4
2022-10-17T04:30:33.894Z,14.4
2022-10-17T04:31:50.998Z,14.3
2022-10-17T04:33:08.103Z,14.3
2022-10-17T04:34:25.207Z,14.4
2022-10-17T04:35:42.311Z,14.4
2022-10-17T04:36:59.415Z,14.3
2022-10-17T04:38:16.520Z,14.4
2022-10-17T04:39:33.624Z,14.3
2022-10-17T04:40:50.729Z,14.3
2022-10-17T04:42:07.833Z,14.3
2022-10-17T04:43:24.937Z,14.3
2022-10-17T04:44:41.058Z,14.3
2022-10-17T04:45:58.162Z,14.2
2022-10-17T04:47:15.266Z,14.3
2022-10-17T04:48:32.371Z,14.2
2022-10-17T04:49:49.475Z,14.2
2022-10-17T04:51:06.580Z,14.2
2022-10-17T04:52:23.684Z,14.2
2022-10-17T04:53:40.789Z,14.2
2022-10-17T04:54:57.893Z,14.2
2022-10-17T04:56:14.998Z,14.2
2022-10-17T04:57:32.102Z,14.2
2022-10-17T04:58:49.206Z,14.1
2022-10-17T05:00:06.310Z,14.1
2022-10-17T05:01:22.431Z,14.1
2022-10-17T05:02:39.535Z,14.2
2022-10-17T05:03:56.640Z,14.2
2022-10-17T05:05:13.744Z,14.2
2022-10-17T05:06:30.849Z,14.2
2022-10-17T05:07:47.953Z,14.2
2022-10-17T05:09:05.057Z,14.2
2022-10-17T05:10:22.161Z,14.1
2022-10-17T05:11:39.266Z,14.1
2022-10-17T05:12:56.370Z,14.1
2022-10-17T05:14:13.474Z,14.2
2022-10-17T05:15:30.579Z,14.2
2022-10-17T05:16:47.683Z,14.2
2022-10-17T05:18:03.803Z,14.2
2022-10-17T05:19:20.907Z,14.1
2022-10-17T05:20:38.011Z,14
2022-10-17T05:21:55.116Z,14
2022-10-17T05:23:12.220Z,14
2022-10-17T05:24:29.324Z,14.1
2022-10-17T05:25:46.429Z,14
2022-10-17T05:27:03.534Z,14
2022-10-17T05:28:20.638Z,14
2022-10-17T05:29:37.742Z,14.1
2022-10-17T05:30:54.846Z,14
2022-10-17T05:32:11.951Z,14
2022-10-17T05:33:29.055Z,14.1
2022-10-17T05:34:45.175Z,14.1
2022-10-17T05:36:02.279Z,14.1
2022-10-17T05:37:19.384Z,14.2
2022-10-17T05:38:36.488Z,14.2
2022-10-17T05:39:53.592Z,14.2
2022-10-17T05:41:10.697Z,14.2
2022-10-17T05:42:27.801Z,14.2
2022-10-17T05:43:44.905Z,14.2
2022-10-17T05:45:02.009Z,14.2
2022-10-17T05:46:19.113Z,14.2
2022-10-17T05:47:36.218Z,14.2
2022-10-17T05:48:53.323Z,14.2
2022-10-17T05:50:10.427Z,14.2
2022-10-17T05:51:26.548Z,14.2
2022-10-17T05:52:43.652Z,14.3
2022-10-17T05:54:00.757Z,14.3
2022-10-17T05:55:17.861Z,14.3
2022-10-17T05:56:34.966Z,14.4
2022-10-17T05:57:52.070Z,14.3
2022-10-17T05:59:08.191Z,14.3
2022-10-17T06:00:25.295Z,14.3
2022-10-17T06:01:42.400Z,14.3
2022-10-17T06:02:59.505Z,14.4
2022-10-17T06:04:16.609Z,14.4
2022-10-17T06:05:33.713Z,14.4
2022-10-17T06:06:50.818Z,14.4
2022-10-17T06:08:07.922Z,14.5
2022-10-17T06:09:25.026Z,14.5
2022-10-17T06:10:42.131Z,14.5
2022-10-17T06:11:59.235Z,14.5
2022-10-17T06:13:16.340Z,14.6
2022-10-17T06:14:33.444Z,14.6
2022-10-17T06:15:49.564Z,14.7
2022-10-17T06:17:06.669Z,14.7
2022-10-17T06:18:23.774Z,14.7
2022-10-17T06:19:40.878Z,14.7
2022-10-17T06:20:57.983Z,14.8
2022-10-17T06:22:15.087Z,14.8
2022-10-17T06:23:32.191Z,14.8
2022-10-17T06:24:49.296Z,14.9
2022-10-17T06:26:06.400Z,14.9
2022-10-17T06:27:23.505Z,15
2022-10-17T06:28:40.609Z,15.1
2022-10-17T06:29:57.714Z,15.2
2022-10-17T06:31:14.818Z,15.4
2022-10-17T06:32:30.939Z,15.7
2022-10-17T06:33:48.044Z,16
2022-10-17T06:35:05.148Z,16.3
2022-10-17T06:36:22.253Z,16.7
2022-10-17T06:37:39.357Z,17
2022-10-17T06:38:56.461Z,16.9
2022-10-17T06:40:13.565Z,16.8
2022-10-17T06:41:30.669Z,16.7
2022-10-17T06:42:47.773Z,16.7
2022-10-17T06:44:04.877Z,16.9
2022-10-17T06:45:21.981Z,17.3
2022-10-17T06:46:39.085Z,17.5
2022-10-17T06:47:56.189Z,17.9
2022-10-17T06:49:12.309Z,18.1
2022-10-17T06:50:29.413Z,18.3
2022-10-17T06:51:46.517Z,18.5
2022-10-17T06:53:03.621Z,18.7
2022-10-17T06:54:20.725Z,18.8
2022-10-17T06:55:37.829Z,18.8
2022-10-17T06:56:54.934Z,18.6
2022-10-17T06:58:12.038Z,18.5
2022-10-17T06:59:29.142Z,18.5
2022-10-17T07:00:46.246Z,18.4
2022-10-17T07:02:03.350Z,18.3
2022-10-17T07:03:20.454Z,18.3
2022-10-17T07:04:37.559Z,18.4
2022-10-17T07:05:53.679Z,18.4
2022-10-17T07:07:10.784Z,18.5
2022-10-17T07:08:27.888Z,18.5
2022-10-17T07:09:44.992Z,18.5
2022-10-17T07:11:02.096Z,18.7
2022-10-17T07:12:19.200Z,18.7
2022-10-17T07:13:36.304Z,18.8
2022-10-17T07:14:53.408Z,18.9
2022-10-17T07:16:10.512Z,19
2022-10-17T07:17:27.617Z,19.1
2022-10-17T07:18:44.721Z,19.2
2022-10-17T07:20:01.825Z,19.2
2022-10-17T07:21:18.929Z,19.3
2022-10-17T07:22:35.050Z,19.4
2022-10-17T07:23:52.153Z,19.6
2022-10-17T07:25:09.257Z,19.8
2022-10-17T07:26:26.361Z,20
2022-10-17T07:27:43.465Z,19.9
2022-10-17T07:29:00.569Z,19.9
2022-10-17T07:30:17.673Z,20.1
2022-10-17T07:31:34.777Z,20.3
2022-10-17T07:32:51.881Z,20.5
2022-10-17T07:34:08.986Z,20.8
2022-10-17T07:35:26.090Z,21.2
2022-10-17T07:36:43.194Z,21.3
2022-10-17T07:38:00.298Z,21.5
2022-10-17T07:39:16.418Z,21.5
2022-10-17T07:40:33.522Z,21.6
2022-10-17T07:41:50.626Z,21.6
2022-10-17T07:43:07.730Z,21.6
2022-10-17T07:44:24.834Z,21.6
2022-10-17T07:45:41.938Z,21.6
2022-10-17T07:46:59.042Z,21.7
2022-10-17T07:48:16.146Z,21.8
2022-10-17T07:49:33.250Z,22
2022-10-17T07:50:50.354Z,22.1
2022-10-17T07:52:07.459Z,22.5
2022-10-17T07:53:24.563Z,22.7
2022-10-17T07:54:41.667Z,22.9
2022-10-17T07:55:57.787Z,23.2
2022-10-17T07:57:14.891Z,23.4
2022-10-17T07:58:31.995Z,23.6
2022-10-17T07:59:49.099Z,23.8
2022-10-17T08:01:06.203Z,24
2022-10-17T08:02:23.307Z,23.8
2022-10-17T08:03:40.411Z,23.8
2022-10-17T08:04:57.515Z,23.9
2022-10-17T08:06:14.620Z,24.1
2022-10-17T08:07:31.724Z,24.3
2022-10-17T08:08:48.828Z,24.4
2022-10-17T08:10:05.932Z,24.4
2022-10-17T08:11:23.036Z,24.6
2022-10-17T08:12:39.157Z,24.5
2022-10-17T08:13:56.262Z,24.5
2022-10-17T08:15:13.366Z,24.6
2022-10-17T08:16:30.470Z,24.7
2022-10-17T08:17:47.575Z,24.7
2022-10-17T08:19:04.680Z,24.4
2022-10-17T08:20:21.784Z,24.5
2022-10-17T08:21:38.889Z,24.6
2022-10-17T08:22:55.993Z,24.7
2022-10-17T08:24:13.097Z,24.8
2022-10-17T08:25:30.202Z,25
2022-10-17T08:26:47.307Z,25.3
2022-10-17T08:28:04.411Z,25.2
2022-10-17T08:29:20.532Z,25.2
2022-10-17T08:30:37.636Z,25.2
2022-10-17T08:31:54.741Z,25.3
2022-10-17T08:33:11.845Z,25.4
2022-10-17T08:34:28.950Z,25.5
2022-10-17T08:35:46.054Z,25.5
2022-10-17T08:37:03.159Z,25.5
2022-10-17T08:38:20.263Z,25.5
2022-10-17T08:39:37.368Z,25.5
2022-10-17T08:40:54.472Z,25.6
2022-10-17T08:42:11.577Z,25.6
2022-10-17T08:43:28.681Z,25.5
2022-10-17T08:44:45.785Z,25.2
2022-10-17T08:46:01.906Z,24.8
2022-10-17T08:47:19.010Z,24.7
2022-10-17T08:48:36.115Z,24.6
2022-10-17T08:49:53.219Z,24.5
2022-10-17T08:51:10.323Z,24.6
2022-10-17T08:52:27.427Z,24.8
2022-10-17T08:53:44.531Z,24.8
2022-10-17T08:55:01.635Z,24.8
2022-10-17T08:56:18.740Z,24.8
2022-10-17T08:57:35.844Z,24.8
2022-10-17T08:58:52.948Z,24.9
2022-10-17T09:00:10.053Z,24.9
2022-10-17T09:01:27.157Z,24.9
2022-10-17T09:02:43.278Z,25.1
2022-10-17T09:04:00.381Z,25.2
2022-10-17T09:05:17.485Z,25.1
2022-10-17T09:06:34.589Z,25.2
2022-10-17T09:07:51.693Z,25.3
2022-10-17T09:09:08.798Z,25.4
2022-10-17T09:10:25.902Z,25.4
2022-10-17T09:11:43.006Z,25.5
2022-10-17T09:13:00.111Z,25.5
2022-10-17T09:14:17.215Z,25.5
2022-10-17T09:15:34.319Z,25.7
2022-10-17T09:16:51.423Z,25.7
2022-10-17T09:18:08.528Z,25.8
2022-10-17T09:19:24.648Z,25.8
2022-10-17T09:20:41.753Z,25.7
2022-10-17T09:21:58.857Z,25.8
2022-10-17T09:23:15.961Z,25.8
2022-10-17T09:24:33.066Z,25.4
2022-10-17T09:25:50.170Z,25.3
2022-10-17T09:27:07.274Z,25.2
2022-10-17T09:28:24.378Z,25.3
2022-10-17T09:29:41.483Z,25.4
2022-10-17T09:30:58.588Z,25.5
2022-10-17T09:32:15.692Z,25.6
2022-10-17T09:33:32.796Z,25.7
2022-10-17T09:34:49.900Z,25.7
2022-10-17T09:36:06.020Z,25.6
2022-10-17T09:37:23.125Z,25.4
2022-10-17T09:38:40.229Z,25.2
2022-10-17T09:39:57.334Z,25.1
2022-10-17T09:41:14.438Z,25.1
2022-10-17T09:42:31.543Z,25
2022-10-17T09:43:48.647Z,25.1
2022-10-17T09:45:05.751Z,25
2022-10-17T09:46:22.855Z,24.8
2022-10-17T09:47:39.959Z,24.6
2022-10-17T09:48:57.063Z,24.5
2022-10-17T09:50:14.168Z,24.4
2022-10-17T09:51:31.272Z,24.3
2022-10-17T09:52:47.392Z,24.2
2022-10-17T09:54:04.496Z,24.2
2022-10-17T09:55:21.600Z,24.2
2022-10-17T09:56:38.704Z,24.2
2022-10-17T09:57:55.808Z,24.3
2022-10-17T09:59:12.912Z,24.4
2022-10-17T10:00:30.016Z,24.2
2022-10-17T10:01:47.121Z,24.3
2022-10-17T10:03:04.225Z,24.3
2022-10-17T10:04:21.329Z,24.3
2022-10-17T10:05:38.433Z,24.4
2022-10-17T10:06:55.537Z,24.4
2022-10-17T10:08:12.641Z,24.5
2022-10-17T10:09:28.761Z,24.6
2022-10-17T10:10:45.865Z,24.6
2022-10-17T10:12:02.969Z,24.7
2022-10-17T10:13:20.073Z,24.7
2022-10-17T10:14:37.177Z,24.7
2022-10-17T10:15:54.282Z,24.6
2022-10-17T10:17:10.402Z,24.5
2022-10-17T10:18:27.506Z,24.6
2022-10-17T10:19:44.610Z,24.6
2022-10-17T10:21:01.714Z,24.6
2022-10-17T10:22:18.818Z,24.5
2022-10-17T10:23:35.922Z,24.4
2022-10-17T10:24:53.026Z,24.3
2022-10-17T10:26:10.131Z,24.4
2022-10-17T10:27:27.235Z,24.4
2022-10-17T10:28:44.339Z,24.4
2022-10-17T10:30:01.443Z,24.3
2022-10-17T10:31:18.547Z,24.3
2022-10-17T10:32:35.651Z,24.3
2022-10-17T10:33:51.771Z,24.2
2022-10-17T10:35:08.876Z,24.3
2022-10-17T10:36:25.980Z,24.3
2022-10-17T10:37:43.084Z,24.2
2022-10-17T10:39:00.188Z,24
2022-10-17T10:40:17.292Z,23.8
2022-10-17T10:41:34.397Z,23.8
2022-10-17T10:42:51.501Z,23.9
2022-10-17T10:44:08.605Z,23.9
2022-10-17T10:45:25.709Z,23.8
2022-10-17T10:46:42.000Z,23.7
2022-10-17T10:47:59.917Z,23.7
2022-10-17T10:49:17.022Z,23.7
2022-10-17T10:50:33.142Z,23.7
2022-10-17T10:51:50.246Z,23.7
2022-10-17T10:53:07.352Z,23.7
2022-10-17T10:54:24.456Z,23.7
2022-10-17T10:55:41.560Z,23.7
2022-10-17T10:56:58.664Z,23.7
2022-10-17T10:58:15.768Z,23.7
2022-10-17T10:59:32.873Z,23.7
2022-10-17T11:00:49.977Z,23.7
2022-10-17T11:02:07.081Z,23.6
2022-10-17T11:03:24.185Z,23.6
2022-10-17T11:04:41.289Z,23.5
2022-10-17T11:05:58.393Z,23.5
2022-10-17T11:07:14.514Z,23.4
2022-10-17T11:08:31.617Z,23.4
2022-10-17T11:09:48.721Z,23.4
2022-10-17T11:11:05.825Z,23.4
2022-10-17T11:12:22.929Z,23.4
2022-10-17T11:13:40.033Z,23.3
2022-10-17T11:14:57.137Z,23.4
2022-10-17T11:16:14.241Z,23.3
2022-10-17T11:17:31.345Z,23.3
2022-10-17T11:18:48.449Z,23.4
2022-10-17T11:20:05.553Z,23.4
2022-10-17T11:21:22.657Z,23.4
2022-10-17T11:22:39.761Z,23.5
2022-10-17T11:23:55.882Z,23.5
2022-10-17T11:25:12.986Z,23.5
2022-10-17T11:26:30.090Z,23.5
2022-10-17T11:27:47.194Z,23.6
2022-10-17T11:29:04.298Z,23.6
2022-10-17T11:30:21.402Z,23.7
2022-10-17T11:31:38.506Z,23.7
2022-10-17T11:32:55.610Z,23.8
2022-10-17T11:34:12.714Z,23.8
2022-10-17T11:35:29.818Z,23.8
2022-10-17T11:36:46.922Z,23.8
2022-10-17T11:38:04.026Z,23.8
2022-10-17T11:39:21.131Z,23.8
2022-10-17T11:40:37.251Z,23.7
2022-10-17T11:41:54.355Z,23.7
2022-10-17T11:43:11.459Z,23.7
2022-10-17T11:44:28.563Z,23.8
2022-10-17T11:45:45.667Z,23.8
2022-10-17T11:47:02.771Z,23.9
2022-10-17T11:48:19.876Z,23.9
2022-10-17T11:49:36.980Z,23.8
2022-10-17T11:50:54.082Z,23.7
2022-10-17T11:52:11.186Z,23.8
2022-10-17T11:53:28.290Z,23.8
2022-10-17T11:54:45.394Z,23.8
2022-10-17T11:56:02.499Z,23.8
2022-10-17T11:57:18.619Z,23.9
2022-10-17T11:58:35.723Z,23.9
2022-10-17T11:59:52.827Z,23.9
2022-10-17T12:01:09.932Z,24
2022-10-17T12:02:27.037Z,24
2022-10-17T12:03:44.141Z,24
2022-10-17T12:05:01.245Z,24
2022-10-17T12:06:18.349Z,23.9
2022-10-17T12:07:35.454Z,24
2022-10-17T12:08:52.558Z,24
2022-10-17T12:10:09.662Z,24
2022-10-17T12:11:26.766Z,23.8
2022-10-17T12:12:43.870Z,23.7
2022-10-17T12:13:59.990Z,23.8
2022-10-17T12:15:17.094Z,23.9
2022-10-17T12:16:34.198Z,23.9
2022-10-17T12:17:51.302Z,24
2022-10-17T12:19:08.407Z,24
2022-10-17T12:20:25.511Z,24.1
2022-10-17T12:21:42.615Z,24
2022-10-17T12:22:59.719Z,24
2022-10-17T12:24:16.823Z,23.9
2022-10-17T12:25:33.927Z,24
2022-10-17T12:26:51.031Z,24
2022-10-17T12:28:08.135Z,24
2022-10-17T12:29:25.240Z,24
2022-10-17T12:30:41.360Z,24
2022-10-17T12:31:58.465Z,24
2022-10-17T12:33:15.569Z,23.9
2022-10-17T12:34:32.673Z,23.9
2022-10-17T12:35:49.777Z,23.9
2022-10-17T12:37:06.882Z,23.8
2022-10-17T12:38:23.986Z,23.8
2022-10-17T12:39:41.090Z,24
2022-10-17T12:40:58.195Z,24.1
2022-10-17T12:42:15.299Z,24.1
2022-10-17T12:43:32.403Z,24.2
2022-10-17T12:44:49.507Z,24.2
2022-10-17T12:46:06.611Z,24.2
2022-10-17T12:47:22.731Z,24.1
2022-10-17T12:48:39.835Z,24.1
2022-10-17T12:49:56.939Z,24
2022-10-17T12:51:14.043Z,24
2022-10-17T12:52:31.147Z,23.9
2022-10-17T12:53:48.251Z,23.8
2022-10-17T12:55:05.355Z,23.8
2022-10-17T12:56:22.459Z,23.7
2022-10-17T12:57:39.564Z,23.8
2022-10-17T12:58:56.668Z,23.7
2022-10-17T13:00:13.772Z,23.7
2022-10-17T13:01:30.876Z,23.7
2022-10-17T13:02:47.980Z,23.8
2022-10-17T13:04:04.100Z,23.8
2022-10-17T13:05:21.204Z,23.8
2022-10-17T13:06:38.308Z,23.8
2022-10-17T13:07:55.412Z,23.8
2022-10-17T13:09:12.516Z,23.8
2022-10-17T13:10:29.620Z,23.9
2022-10-17T13:11:46.725Z,24
2022-10-17T13:13:03.829Z,24.1
2022-10-17T13:14:20.933Z,24.1
2022-10-17T13:15:38.038Z,24.2
2022-10-17T13:16:55.142Z,24.2
2022-10-17T13:18:12.246Z,24.1
2022-10-17T13:19:29.350Z,24.1
2022-10-17T13:20:45.470Z,24.1
2022-10-17T13:22:02.575Z,24.1
2022-10-17T13:23:19.679Z,24.1
2022-10-17T13:24:36.783Z,24.1
2022-10-17T13:25:53.887Z,24.1
2022-10-17T13:27:10.991Z,24.1
2022-10-17T13:28:28.096Z,24.1
2022-10-17T13:29:45.200Z,24
2022-10-17T13:31:02.304Z,24
2022-10-17T13:32:19.408Z,23.9
2022-10-17T13:33:36.512Z,23.9
2022-10-17T13:34:53.616Z,23.9
2022-10-17T13:36:10.721Z,23.8
2022-10-17T13:37:26.841Z,23.8
2022-10-17T13:38:43.945Z,23.7
2022-10-17T13:40:01.049Z,23.7
2022-10-17T13:41:18.154Z,23.7
2022-10-17T13:42:35.258Z,23.8
2022-10-17T13:43:52.362Z,23.7
2022-10-17T13:45:09.466Z,23.8
2022-10-17T13:46:26.570Z,23.8
2022-10-17T13:47:43.674Z,23.8
2022-10-17T13:49:00.778Z,23.8
2022-10-17T13:50:17.883Z,23.8
2022-10-17T13:51:34.987Z,23.8
2022-10-17T13:52:52.091Z,23.7
2022-10-17T13:54:08.211Z,23.7
2022-10-17T13:55:25.315Z,23.6
2022-10-17T13:56:42.420Z,23.7
2022-10-17T13:57:59.524Z,23.7
2022-10-17T13:59:16.628Z,23.7
2022-10-17T14:00:33.732Z,23.6
2022-10-17T14:01:50.836Z,23.6
2022-10-17T14:03:07.941Z,23.6
2022-10-17T14:04:25.045Z,23.6
2022-10-17T14:05:42.149Z,23.6
2022-10-17T14:06:59.253Z,23.6
2022-10-17T14:08:16.357Z,23.6
2022-10-17T14:09:33.461Z,23.5
2022-10-17T14:10:49.582Z,23.4
2022-10-17T14:12:06.686Z,23.4
2022-10-17T14:13:23.790Z,23.2
2022-10-17T14:14:40.894Z,23.2
2022-10-17T14:15:57.998Z,23.1
2022-10-17T14:17:15.102Z,23.1
2022-10-17T14:18:32.206Z,23.1
2022-10-17T14:19:49.310Z,23.1
2022-10-17T14:21:06.414Z,23.1
2022-10-17T14:22:23.518Z,23.1
2022-10-17T14:23:40.622Z,23.1
2022-10-17T14:24:57.726Z,23.1
2022-10-17T14:26:14.830Z,23
2022-10-17T14:27:30.950Z,22.9
2022-10-17T14:28:48.054Z,22.9
2022-10-17T14:30:05.157Z,22.9
2022-10-17T14:31:22.261Z,22.9
2022-10-17T14:32:39.365Z,22.9
2022-10-17T14:33:56.469Z,22.9
2022-10-17T14:35:12.589Z,22.9
2022-10-17T14:36:29.693Z,23
2022-10-17T14:37:46.797Z,23
2022-10-17T14:39:03.901Z,23
2022-10-17T14:40:21.004Z,23
2022-10-17T14:41:38.108Z,22.9
2022-10-17T14:42:55.212Z,22.9
2022-10-17T14:44:12.316Z,22.9
2022-10-17T14:45:29.420Z,22.9
2022-10-17T14:46:46.524Z,22.9
2022-10-17T14:48:03.627Z,22.9
2022-10-17T14:49:20.731Z,22.9
2022-10-17T14:50:37.835Z,22.9
2022-10-17T14:51:53.955Z,22.9
2022-10-17T14:53:11.059Z,22.9
2022-10-17T14:54:28.163Z,22.8
2022-10-17T14:55:45.267Z,22.8
2022-10-17T14:57:02.371Z,22.7
2022-10-17T14:58:19.474Z,22.7
2022-10-17T14:59:36.578Z,22.7
2022-10-17T15:00:53.682Z,22.7
2022-10-17T15:02:10.786Z,22.7
2022-10-17T15:03:27.889Z,22.7
2022-10-17T15:04:44.993Z,22.6
2022-10-17T15:06:02.097Z,22.7
2022-10-17T15:07:19.201Z,22.7
2022-10-17T15:08:35.321Z,22.7
2022-10-17T15:09:52.425Z,22.6
2022-10-17T15:11:09.529Z,22.5
2022-10-17T15:12:26.633Z,22.6
2022-10-17T15:13:43.737Z,22.5
2022-10-17T15:15:00.841Z,22.5
2022-10-17T15:16:17.944Z,22.6
2022-10-17T15:17:35.048Z,22.6
2022-10-17T15:18:52.152Z,22.5
2022-10-17T15:20:09.256Z,22.5
2022-10-17T15:21:26.360Z,22.6
2022-10-17T15:22:43.464Z,22.5
2022-10-17T15:24:00.568Z,22.5
2022-10-17T15:25:16.688Z,22.4
2022-10-17T15:26:33.792Z,22.4
2022-10-17T15:27:50.896Z,22.4
2022-10-17T15:29:08.000Z,22.4
2022-10-17T15:30:25.104Z,22.4
2022-10-17T15:31:42.208Z,22.4
2022-10-17T15:32:59.312Z,22.4
2022-10-17T15:34:16.416Z,22.3
2022-10-17T15:35:33.520Z,22.3
2022-10-17T15:36:50.624Z,22.2
2022-10-17T15:38:07.728Z,22.2
2022-10-17T15:39:24.833Z,22.2
2022-10-17T15:40:41.937Z,22.1
2022-10-17T15:41:58.057Z,22.1
2022-10-17T15:43:15.162Z,22.1
2022-10-17T15:44:32.266Z,22.1
2022-10-17T15:45:49.370Z,22
2022-10-17T15:47:06.474Z,22
2022-10-17T15:48:23.579Z,22
2022-10-17T15:49:40.683Z,21.9
2022-10-17T15:50:57.788Z,21.9
2022-10-17T15:52:14.892Z,21.8
2022-10-17T15:53:31.996Z,21.7
2022-10-17T15:54:49.100Z,21.7
2022-10-17T15:56:06.205Z,21.7
2022-10-17T15:57:23.309Z,21.7
2022-10-17T15:58:39.429Z,21.6
2022-10-17T15:59:56.533Z,21.6
2022-10-17T16:01:13.638Z,21.6
2022-10-17T16:02:30.742Z,21.6
2022-10-17T16:03:47.846Z,21.7
2022-10-17T16:05:04.950Z,21.6
2022-10-17T16:06:22.054Z,21.6
2022-10-17T16:07:39.159Z,21.6
2022-10-17T16:08:56.264Z,21.6
2022-10-17T16:10:13.368Z,21.6
2022-10-17T16:11:30.472Z,21.5
2022-10-17T16:12:47.577Z,21.5
2022-10-17T16:14:04.681Z,21.5
2022-10-17T16:15:20.801Z,21.4
2022-10-17T16:16:37.906Z,21.4
2022-10-17T16:17:55.010Z,21.4
2022-10-17T16:19:12.114Z,21.4
2022-10-17T16:20:29.218Z,21.4
2022-10-17T16:21:46.322Z,21.3
2022-10-17T16:23:03.426Z,21.3
2022-10-17T16:24:20.531Z,21.3
2022-10-17T16:25:37.635Z,21.3
2022-10-17T16:26:54.739Z,21.2
2022-10-17T16:28:11.843Z,21.2
2022-10-17T16:29:28.948Z,21.2
2022-10-17T16:30:46.052Z,21.2
2022-10-17T16:32:02.172Z,21.2
2022-10-17T16:33:19.276Z,21.2
2022-10-17T16:34:36.380Z,21.2
2022-10-17T16:35:53.485Z,21.1
2022-10-17T16:37:10.589Z,21
2022-10-17T16:38:27.693Z,21
2022-10-17T16:39:44.797Z,21
2022-10-17T16:41:01.901Z,20.9
2022-10-17T16:42:19.005Z,20.9
2022-10-17T16:43:36.109Z,20.9
2022-10-17T16:44:53.213Z,20.9
2022-10-17T16:46:10.317Z,20.9
2022-10-17T16:47:27.421Z,20.8
2022-10-17T16:48:43.541Z,20.8
2022-10-17T16:50:00.645Z,20.7
2022-10-17T16:51:17.749Z,20.7
2022-10-17T16:52:34.853Z,20.7
2022-10-17T16:53:51.957Z,20.7
2022-10-17T16:55:09.061Z,20.7
2022-10-17T16:56:26.165Z,20.7
2022-10-17T16:57:43.270Z,20.7
2022-10-17T16:59:00.374Z,20.7
2022-10-17T17:00:17.478Z,20.7
2022-10-17T17:01:34.582Z,20.7
2022-10-17T17:02:51.686Z,20.8
2022-10-17T17:04:08.791Z,20.7
2022-10-17T17:05:24.911Z,20.8
2022-10-17T17:06:42.015Z,20.8
2022-10-17T17:07:59.119Z,20.7
2022-10-17T17:09:16.223Z,20.8
2022-10-17T17:10:33.328Z,20.7